createdAt,value
2022-09-28T14:19:35.321Z,98299.53
2022-09-28T14:24:49.304Z,98303.72
2022-09-28T14:29:55.595Z,98291.91
2022-09-28T14:34:59.852Z,98291.00
2022-09-28T14:40:45.861Z,98290.00
2022-09-28T14:46:11.678Z,98276.81
2022-09-28T14:51:26.449Z,98289.50
2022-09-28T14:56:32.846Z,98299.78
2022-09-28T15:01:36.631Z,98306.00
2022-09-28T15:06:48.894Z,98320.16
2022-09-28T15:12:04.270Z,98303.16
2022-09-28T15:17:11.285Z,98309.41
2022-09-28T15:22:17.288Z,98299.75
2022-09-28T15:32:36.210Z,98306.16
2022-09-28T15:37:40.666Z,98298.22
2022-09-28T15:42:45.359Z,98294.34
2022-09-28T15:47:48.299Z,98296.47
2022-09-28T15:53:00.495Z,98286.97
2022-09-28T15:58:06.106Z,98294.81
2022-09-28T16:03:09.514Z,98291.38
2022-09-28T16:08:20.013Z,98290.19
2022-09-28T16:13:24.178Z,98289.69
2022-09-28T16:18:39.048Z,98293.59
2022-09-28T16:23:43.605Z,98294.63
2022-09-28T16:28:50.409Z,98292.97
2022-09-28T16:33:54.169Z,98295.00
2022-09-28T16:38:56.557Z,98298.84
2022-09-28T16:44:04.937Z,98303.84
2022-09-28T16:49:13.030Z,98292.56
2022-09-28T16:54:38.237Z,98291.84
2022-09-28T16:59:40.830Z,98289.75
2022-09-28T17:04:47.515Z,98309.78
2022-09-28T17:09:50.001Z,98296.66
2022-09-28T17:14:57.717Z,98293.53
2022-09-28T17:20:07.518Z,98298.16
2022-09-28T17:25:16.151Z,98299.84
2022-09-28T17:30:20.290Z,98298.84
2022-09-28T17:35:25.920Z,98311.75
2022-09-28T17:40:31.166Z,98306.31
2022-09-28T17:45:39.131Z,98298.19
2022-09-28T17:50:46.276Z,98312.84
2022-09-28T17:55:49.182Z,98337.25
2022-09-28T18:00:53.341Z,98347.28
2022-09-28T18:06:01.597Z,98340.34
2022-09-28T18:11:03.964Z,98337.00
2022-09-28T18:16:09.751Z,98331.28
2022-09-28T18:21:13.661Z,98319.34
2022-09-28T18:26:20.640Z,98321.75
2022-09-28T18:31:23.030Z,98340.25
2022-09-28T18:36:32.643Z,98343.94
2022-09-28T18:41:35.599Z,98352.31
2022-09-28T18:46:43.201Z,98353.34
2022-09-28T18:51:46.131Z,98357.41
2022-09-28T18:56:50.495Z,98343.94
2022-09-28T19:01:53.104Z,98336.06
2022-09-28T19:07:00.988Z,98354.91
2022-09-28T19:12:05.511Z,98351.53
2022-09-28T19:17:16.526Z,98372.31
2022-09-28T19:22:18.782Z,98362.97
2022-09-28T19:27:22.636Z,98377.88
2022-09-28T19:32:30.615Z,98343.69
2022-09-28T19:37:44.422Z,98337.47
2022-09-28T19:42:46.616Z,98361.78
2022-09-28T19:47:50.620Z,98348.91
2022-09-28T19:53:02.651Z,98360.03
2022-09-28T19:58:05.106Z,98371.81
2022-09-28T20:03:09.312Z,98370.81
2022-09-28T20:08:16.684Z,98377.75
2022-09-28T20:13:23.664Z,98370.38
2022-09-28T20:18:27.609Z,98365.19
2022-09-28T20:23:29.886Z,98353.44
2022-09-28T20:28:36.705Z,98355.94
2022-09-28T20:33:44.748Z,98337.69
2022-09-28T20:38:52.440Z,98312.06
2022-09-28T20:44:06.898Z,98319.56
2022-09-28T20:49:11.456Z,98329.94
2022-09-28T20:54:13.814Z,98326.66
2022-09-28T20:59:16.648Z,98336.75
2022-09-28T21:04:27.177Z,98317.16
2022-09-28T21:09:32.131Z,98369.31
2022-09-28T21:14:34.401Z,98376.56
2022-09-28T21:19:37.939Z,98349.97
2022-09-28T21:24:42.856Z,98402.19
2022-09-28T21:29:45.061Z,98393.72
2022-09-28T21:34:47.274Z,98410.34
2022-09-28T21:39:56.949Z,98419.91
2022-09-28T21:44:59.616Z,98384.34
2022-09-28T21:50:04.652Z,98375.09
2022-09-28T21:55:07.195Z,98373.19
2022-09-28T22:00:10.674Z,98360.81
2022-09-28T22:05:13.140Z,98374.81
2022-09-28T22:10:15.488Z,98368.00
2022-09-28T22:15:17.706Z,98371.97
2022-09-28T22:20:20.017Z,98392.06
2022-09-28T22:25:22.338Z,98384.25
2022-09-28T22:30:25.151Z,98375.53
2022-09-28T22:35:27.413Z,98371.91
2022-09-28T22:40:29.715Z,98382.78
2022-09-28T22:45:34.223Z,98376.88
2022-09-28T22:50:39.106Z,98367.41
2022-09-28T22:55:42.083Z,98370.63
2022-09-28T23:00:46.488Z,98374.28
2022-09-28T23:06:03.273Z,98362.44
2022-09-28T23:11:07.665Z,98358.41
2022-09-28T23:16:21.611Z,98364.94
2022-09-28T23:21:25.307Z,98364.19
2022-09-28T23:26:39.391Z,98356.25
2022-09-28T23:31:45.580Z,98355.13
2022-09-28T23:36:48.739Z,98356.75
2022-09-28T23:41:51.594Z,98359.38
2022-09-28T23:47:03.286Z,98363.91
2022-09-28T23:52:07.860Z,98366.53
2022-09-28T23:57:10.319Z,98352.69
